sensor_id;sensor_type;location;lat;lon;timestamp;P1;durP1;ratioP1;P2;durP2;ratioP2
74995;SDS011;63545;51.690;5.202;2022-12-18T00:00:59;77.33;;;24.47;;
74995;SDS011;63545;51.690;5.202;2022-12-18T00:03:32;76.07;;;24.73;;
74995;SDS011;63545;51.690;5.202;2022-12-18T00:05:58;72.10;;;23.45;;
74995;SDS011;63545;51.690;5.202;2022-12-18T00:08:24;63.53;;;20.37;;
74995;SDS011;63545;51.690;5.202;2022-12-18T00:10:49;73.93;;;23.75;;
74995;SDS011;63545;51.690;5.202;2022-12-18T00:13:15;76.50;;;21.77;;
74995;SDS011;63545;51.690;5.202;2022-12-18T00:15:40;76.97;;;22.10;;
74995;SDS011;63545;51.690;5.202;2022-12-18T00:18:05;70.27;;;22.70;;
74995;SDS011;63545;51.690;5.202;2022-12-18T00:20:31;81.23;;;23.07;;
74995;SDS011;63545;51.690;5.202;2022-12-18T00:22:56;68.88;;;21.33;;
74995;SDS011;63545;51.690;5.202;2022-12-18T00:25:22;74.80;;;22.40;;
74995;SDS011;63545;51.690;5.202;2022-12-18T00:27:47;67.03;;;22.17;;
74995;SDS011;63545;51.690;5.202;2022-12-18T00:30:13;68.72;;;21.63;;
74995;SDS011;63545;51.690;5.202;2022-12-18T00:32:38;71.88;;;21.77;;
74995;SDS011;63545;51.690;5.202;2022-12-18T00:35:04;69.53;;;22.87;;
74995;SDS011;63545;51.690;5.202;2022-12-18T00:37:30;69.78;;;22.35;;
74995;SDS011;63545;51.690;5.202;2022-12-18T00:39:55;66.70;;;22.53;;
74995;SDS011;63545;51.690;5.202;2022-12-18T00:42:21;60.87;;;22.00;;
74995;SDS011;63545;51.690;5.202;2022-12-18T00:45:06;63.95;;;20.67;;
74995;SDS011;63545;51.690;5.202;2022-12-18T00:47:32;69.07;;;21.70;;
74995;SDS011;63545;51.690;5.202;2022-12-18T00:49:57;65.25;;;21.58;;
74995;SDS011;63545;51.690;5.202;2022-12-18T00:52:22;65.65;;;22.50;;
74995;SDS011;63545;51.690;5.202;2022-12-18T00:54:48;66.67;;;21.17;;
74995;SDS011;63545;51.690;5.202;2022-12-18T00:57:13;70.47;;;22.53;;
74995;SDS011;63545;51.690;5.202;2022-12-18T00:59:38;64.80;;;20.87;;
74995;SDS011;63545;51.690;5.202;2022-12-18T01:02:04;65.07;;;21.87;;
74995;SDS011;63545;51.690;5.202;2022-12-18T01:04:31;69.03;;;21.97;;
74995;SDS011;63545;51.690;5.202;2022-12-18T01:06:56;68.82;;;20.88;;
74995;SDS011;63545;51.690;5.202;2022-12-18T01:09:22;69.03;;;22.60;;
74995;SDS011;63545;51.690;5.202;2022-12-18T01:11:48;68.28;;;21.83;;
74995;SDS011;63545;51.690;5.202;2022-12-18T01:14:13;69.45;;;23.67;;
74995;SDS011;63545;51.690;5.202;2022-12-18T01:16:38;75.73;;;22.97;;
74995;SDS011;63545;51.690;5.202;2022-12-18T01:19:04;75.40;;;23.27;;
74995;SDS011;63545;51.690;5.202;2022-12-18T01:21:29;62.70;;;21.60;;
74995;SDS011;63545;51.690;5.202;2022-12-18T01:23:54;60.97;;;21.50;;
74995;SDS011;63545;51.690;5.202;2022-12-18T01:26:20;67.95;;;23.20;;
74995;SDS011;63545;51.690;5.202;2022-12-18T01:28:46;59.27;;;20.97;;
74995;SDS011;63545;51.690;5.202;2022-12-18T01:33:41;69.90;;;22.73;;
74995;SDS011;63545;51.690;5.202;2022-12-18T01:36:06;73.00;;;23.07;;
74995;SDS011;63545;51.690;5.202;2022-12-18T01:38:32;62.67;;;21.95;;
74995;SDS011;63545;51.690;5.202;2022-12-18T01:40:58;70.30;;;22.47;;
74995;SDS011;63545;51.690;5.202;2022-12-18T01:43:45;64.68;;;22.15;;
74995;SDS011;63545;51.690;5.202;2022-12-18T01:46:11;68.25;;;22.85;;
74995;SDS011;63545;51.690;5.202;2022-12-18T01:48:37;66.53;;;22.92;;
74995;SDS011;63545;51.690;5.202;2022-12-18T01:51:03;68.22;;;22.13;;
74995;SDS011;63545;51.690;5.202;2022-12-18T01:53:29;68.72;;;23.40;;
74995;SDS011;63545;51.690;5.202;2022-12-18T01:55:56;69.80;;;23.17;;
74995;SDS011;63545;51.690;5.202;2022-12-18T01:58:23;70.60;;;23.45;;
74995;SDS011;63545;51.690;5.202;2022-12-18T02:00:55;70.25;;;23.58;;
74995;SDS011;63545;51.690;5.202;2022-12-18T02:03:20;63.97;;;21.37;;
74995;SDS011;63545;51.690;5.202;2022-12-18T02:08:21;63.00;;;21.10;;
74995;SDS011;63545;51.690;5.202;2022-12-18T02:10:57;61.42;;;21.10;;
74995;SDS011;63545;51.690;5.202;2022-12-18T02:13:46;66.72;;;21.95;;
74995;SDS011;63545;51.690;5.202;2022-12-18T02:18:45;63.22;;;22.65;;
74995;SDS011;63545;51.690;5.202;2022-12-18T02:24:24;53.45;;;20.13;;
74995;SDS011;63545;51.690;5.202;2022-12-18T02:27:12;62.83;;;21.00;;
74995;SDS011;63545;51.690;5.202;2022-12-18T02:30:11;56.60;;;20.07;;
74995;SDS011;63545;51.690;5.202;2022-12-18T02:32:31;62.75;;;21.20;;
74995;SDS011;63545;51.690;5.202;2022-12-18T02:34:59;59.83;;;21.25;;
74995;SDS011;63545;51.690;5.202;2022-12-18T02:37:24;59.83;;;21.00;;
74995;SDS011;63545;51.690;5.202;2022-12-18T02:39:51;62.55;;;21.35;;
74995;SDS011;63545;51.690;5.202;2022-12-18T02:42:18;59.40;;;20.05;;
74995;SDS011;63545;51.690;5.202;2022-12-18T02:44:48;58.23;;;19.17;;
74995;SDS011;63545;51.690;5.202;2022-12-18T02:47:15;58.10;;;20.33;;
74995;SDS011;63545;51.690;5.202;2022-12-18T02:49:53;62.28;;;20.35;;
74995;SDS011;63545;51.690;5.202;2022-12-18T02:55:18;54.70;;;19.60;;
74995;SDS011;63545;51.690;5.202;2022-12-18T03:03:25;53.92;;;20.02;;
74995;SDS011;63545;51.690;5.202;2022-12-18T03:05:59;51.22;;;18.70;;
74995;SDS011;63545;51.690;5.202;2022-12-18T03:08:29;51.67;;;18.10;;
74995;SDS011;63545;51.690;5.202;2022-12-18T03:11:02;52.47;;;18.83;;
74995;SDS011;63545;51.690;5.202;2022-12-18T03:16:08;52.80;;;18.00;;
74995;SDS011;63545;51.690;5.202;2022-12-18T03:18:36;57.08;;;18.58;;
74995;SDS011;63545;51.690;5.202;2022-12-18T03:21:05;48.50;;;18.77;;
74995;SDS011;63545;51.690;5.202;2022-12-18T03:23:35;55.28;;;18.83;;
74995;SDS011;63545;51.690;5.202;2022-12-18T03:26:07;52.83;;;17.25;;
74995;SDS011;63545;51.690;5.202;2022-12-18T03:28:36;52.40;;;19.15;;
74995;SDS011;63545;51.690;5.202;2022-12-18T03:31:07;52.58;;;19.23;;
74995;SDS011;63545;51.690;5.202;2022-12-18T03:33:37;50.07;;;19.87;;
74995;SDS011;63545;51.690;5.202;2022-12-18T03:36:06;52.90;;;18.33;;
74995;SDS011;63545;51.690;5.202;2022-12-18T03:38:31;48.58;;;18.73;;
74995;SDS011;63545;51.690;5.202;2022-12-18T03:46:04;49.67;;;19.33;;
74995;SDS011;63545;51.690;5.202;2022-12-18T03:48:41;55.50;;;18.50;;
74995;SDS011;63545;51.690;5.202;2022-12-18T03:51:11;53.72;;;19.75;;
74995;SDS011;63545;51.690;5.202;2022-12-18T03:54:02;48.60;;;18.60;;
74995;SDS011;63545;51.690;5.202;2022-12-18T03:56:29;54.30;;;20.10;;
74995;SDS011;63545;51.690;5.202;2022-12-18T03:59:10;47.97;;;17.77;;
74995;SDS011;63545;51.690;5.202;2022-12-18T04:01:41;44.47;;;18.13;;
74995;SDS011;63545;51.690;5.202;2022-12-18T04:04:12;48.85;;;17.30;;
74995;SDS011;63545;51.690;5.202;2022-12-18T04:06:37;47.42;;;18.58;;
74995;SDS011;63545;51.690;5.202;2022-12-18T04:09:03;50.60;;;17.83;;
74995;SDS011;63545;51.690;5.202;2022-12-18T04:11:29;47.75;;;18.02;;
74995;SDS011;63545;51.690;5.202;2022-12-18T04:13:55;43.70;;;17.50;;
74995;SDS011;63545;51.690;5.202;2022-12-18T04:16:22;49.22;;;18.80;;
74995;SDS011;63545;51.690;5.202;2022-12-18T04:18:48;50.25;;;19.30;;
74995;SDS011;63545;51.690;5.202;2022-12-18T04:21:14;44.70;;;17.03;;
74995;SDS011;63545;51.690;5.202;2022-12-18T04:23:39;43.50;;;17.40;;
74995;SDS011;63545;51.690;5.202;2022-12-18T04:26:04;44.23;;;17.77;;
74995;SDS011;63545;51.690;5.202;2022-12-18T04:28:30;45.73;;;17.33;;
74995;SDS011;63545;51.690;5.202;2022-12-18T04:30:55;47.10;;;17.63;;
74995;SDS011;63545;51.690;5.202;2022-12-18T04:33:21;44.47;;;17.60;;
74995;SDS011;63545;51.690;5.202;2022-12-18T04:35:46;44.80;;;17.63;;
74995;SDS011;63545;51.690;5.202;2022-12-18T04:38:11;47.57;;;16.93;;
74995;SDS011;63545;51.690;5.202;2022-12-18T04:40:37;45.63;;;16.97;;
74995;SDS011;63545;51.690;5.202;2022-12-18T04:43:03;49.67;;;16.70;;
74995;SDS011;63545;51.690;5.202;2022-12-18T04:45:29;43.03;;;16.98;;
74995;SDS011;63545;51.690;5.202;2022-12-18T04:47:56;39.83;;;15.90;;
74995;SDS011;63545;51.690;5.202;2022-12-18T04:50:22;47.90;;;17.40;;
74995;SDS011;63545;51.690;5.202;2022-12-18T04:52:48;39.60;;;14.90;;
74995;SDS011;63545;51.690;5.202;2022-12-18T04:55:13;38.55;;;16.13;;
74995;SDS011;63545;51.690;5.202;2022-12-18T04:57:38;42.63;;;16.57;;
74995;SDS011;63545;51.690;5.202;2022-12-18T05:00:04;43.50;;;16.37;;
74995;SDS011;63545;51.690;5.202;2022-12-18T05:02:31;40.03;;;16.30;;
74995;SDS011;63545;51.690;5.202;2022-12-18T05:04:56;38.83;;;15.83;;
74995;SDS011;63545;51.690;5.202;2022-12-18T05:07:21;40.67;;;16.00;;
74995;SDS011;63545;51.690;5.202;2022-12-18T05:09:47;42.73;;;15.47;;
74995;SDS011;63545;51.690;5.202;2022-12-18T05:12:12;41.50;;;17.00;;
74995;SDS011;63545;51.690;5.202;2022-12-18T05:14:37;41.03;;;16.40;;
74995;SDS011;63545;51.690;5.202;2022-12-18T05:17:03;45.20;;;16.43;;
74995;SDS011;63545;51.690;5.202;2022-12-18T05:19:28;46.60;;;15.97;;
74995;SDS011;63545;51.690;5.202;2022-12-18T05:21:53;39.28;;;15.88;;
74995;SDS011;63545;51.690;5.202;2022-12-18T05:24:19;46.17;;;16.95;;
74995;SDS011;63545;51.690;5.202;2022-12-18T05:26:44;34.30;;;14.87;;
74995;SDS011;63545;51.690;5.202;2022-12-18T05:29:09;39.13;;;16.40;;
74995;SDS011;63545;51.690;5.202;2022-12-18T05:31:37;40.55;;;15.60;;
74995;SDS011;63545;51.690;5.202;2022-12-18T05:34:03;39.17;;;15.67;;
74995;SDS011;63545;51.690;5.202;2022-12-18T05:36:28;38.75;;;14.55;;
74995;SDS011;63545;51.690;5.202;2022-12-18T05:38:53;41.20;;;16.63;;
74995;SDS011;63545;51.690;5.202;2022-12-18T05:41:19;36.97;;;15.07;;
74995;SDS011;63545;51.690;5.202;2022-12-18T05:43:44;37.80;;;14.87;;
74995;SDS011;63545;51.690;5.202;2022-12-18T05:46:14;34.07;;;14.93;;
74995;SDS011;63545;51.690;5.202;2022-12-18T05:48:41;37.65;;;15.07;;
74995;SDS011;63545;51.690;5.202;2022-12-18T05:51:08;34.93;;;15.30;;
74995;SDS011;63545;51.690;5.202;2022-12-18T05:53:36;37.65;;;14.95;;
74995;SDS011;63545;51.690;5.202;2022-12-18T05:56:03;37.85;;;15.35;;
74995;SDS011;63545;51.690;5.202;2022-12-18T05:58:29;38.47;;;14.70;;
74995;SDS011;63545;51.690;5.202;2022-12-18T06:00:55;36.22;;;15.77;;
74995;SDS011;63545;51.690;5.202;2022-12-18T06:03:20;34.53;;;14.67;;
74995;SDS011;63545;51.690;5.202;2022-12-18T06:05:46;34.23;;;14.90;;
74995;SDS011;63545;51.690;5.202;2022-12-18T06:08:12;36.13;;;14.57;;
74995;SDS011;63545;51.690;5.202;2022-12-18T06:10:38;31.95;;;13.25;;
74995;SDS011;63545;51.690;5.202;2022-12-18T06:13:04;35.30;;;14.67;;
74995;SDS011;63545;51.690;5.202;2022-12-18T06:15:29;30.27;;;13.75;;
74995;SDS011;63545;51.690;5.202;2022-12-18T06:17:55;34.20;;;13.80;;
74995;SDS011;63545;51.690;5.202;2022-12-18T06:20:21;37.53;;;14.33;;
74995;SDS011;63545;51.690;5.202;2022-12-18T06:22:46;34.05;;;14.32;;
74995;SDS011;63545;51.690;5.202;2022-12-18T06:25:11;35.77;;;13.23;;
74995;SDS011;63545;51.690;5.202;2022-12-18T06:27:37;37.80;;;14.77;;
74995;SDS011;63545;51.690;5.202;2022-12-18T06:30:03;37.85;;;14.23;;
74995;SDS011;63545;51.690;5.202;2022-12-18T06:32:29;33.72;;;14.85;;
74995;SDS011;63545;51.690;5.202;2022-12-18T06:34:54;32.77;;;15.07;;
74995;SDS011;63545;51.690;5.202;2022-12-18T06:37:20;36.83;;;14.43;;
74995;SDS011;63545;51.690;5.202;2022-12-18T06:39:46;33.60;;;14.23;;
74995;SDS011;63545;51.690;5.202;2022-12-18T06:42:11;33.65;;;14.35;;
74995;SDS011;63545;51.690;5.202;2022-12-18T06:44:36;33.63;;;13.37;;
74995;SDS011;63545;51.690;5.202;2022-12-18T06:47:02;36.67;;;14.37;;
74995;SDS011;63545;51.690;5.202;2022-12-18T06:49:27;39.53;;;14.73;;
74995;SDS011;63545;51.690;5.202;2022-12-18T06:51:53;35.20;;;15.18;;
74995;SDS011;63545;51.690;5.202;2022-12-18T06:54:18;32.78;;;13.80;;
74995;SDS011;63545;51.690;5.202;2022-12-18T06:56:45;33.53;;;13.23;;
74995;SDS011;63545;51.690;5.202;2022-12-18T06:59:10;34.37;;;14.50;;
74995;SDS011;63545;51.690;5.202;2022-12-18T07:01:37;31.35;;;14.27;;
74995;SDS011;63545;51.690;5.202;2022-12-18T07:04:02;38.13;;;14.80;;
74995;SDS011;63545;51.690;5.202;2022-12-18T07:06:28;32.28;;;14.80;;
74995;SDS011;63545;51.690;5.202;2022-12-18T07:08:53;37.53;;;14.85;;
74995;SDS011;63545;51.690;5.202;2022-12-18T07:11:19;30.07;;;11.97;;
74995;SDS011;63545;51.690;5.202;2022-12-18T07:13:45;31.80;;;13.65;;
74995;SDS011;63545;51.690;5.202;2022-12-18T07:16:12;31.08;;;12.98;;
74995;SDS011;63545;51.690;5.202;2022-12-18T07:18:41;32.13;;;13.32;;
74995;SDS011;63545;51.690;5.202;2022-12-18T07:21:09;33.13;;;14.30;;
74995;SDS011;63545;51.690;5.202;2022-12-18T07:23:36;35.03;;;15.15;;
74995;SDS011;63545;51.690;5.202;2022-12-18T07:26:05;34.20;;;13.85;;
74995;SDS011;63545;51.690;5.202;2022-12-18T07:28:32;30.93;;;13.03;;
74995;SDS011;63545;51.690;5.202;2022-12-18T07:31:02;31.73;;;14.05;;
74995;SDS011;63545;51.690;5.202;2022-12-18T07:33:32;35.53;;;14.10;;
74995;SDS011;63545;51.690;5.202;2022-12-18T07:36:03;36.83;;;14.35;;
74995;SDS011;63545;51.690;5.202;2022-12-18T07:38:29;35.33;;;15.18;;
74995;SDS011;63545;51.690;5.202;2022-12-18T07:41:02;32.23;;;13.97;;
74995;SDS011;63545;51.690;5.202;2022-12-18T07:43:28;33.90;;;14.65;;
74995;SDS011;63545;51.690;5.202;2022-12-18T07:45:53;34.23;;;14.80;;
74995;SDS011;63545;51.690;5.202;2022-12-18T07:48:19;32.47;;;14.83;;
74995;SDS011;63545;51.690;5.202;2022-12-18T07:50:44;32.10;;;14.05;;
74995;SDS011;63545;51.690;5.202;2022-12-18T07:53:09;34.83;;;14.00;;
74995;SDS011;63545;51.690;5.202;2022-12-18T07:55:35;33.40;;;15.57;;
74995;SDS011;63545;51.690;5.202;2022-12-18T07:58:01;32.33;;;14.17;;
74995;SDS011;63545;51.690;5.202;2022-12-18T08:00:27;35.30;;;15.18;;
74995;SDS011;63545;51.690;5.202;2022-12-18T08:02:53;35.23;;;14.93;;
74995;SDS011;63545;51.690;5.202;2022-12-18T08:05:18;39.20;;;14.10;;
74995;SDS011;63545;51.690;5.202;2022-12-18T08:07:43;30.90;;;14.38;;
74995;SDS011;63545;51.690;5.202;2022-12-18T08:10:09;35.00;;;13.87;;
74995;SDS011;63545;51.690;5.202;2022-12-18T08:12:34;33.00;;;14.67;;
74995;SDS011;63545;51.690;5.202;2022-12-18T08:14:59;32.67;;;13.70;;
74995;SDS011;63545;51.690;5.202;2022-12-18T08:17:25;34.10;;;14.10;;
74995;SDS011;63545;51.690;5.202;2022-12-18T08:19:50;33.60;;;15.07;;
74995;SDS011;63545;51.690;5.202;2022-12-18T08:22:15;26.77;;;12.90;;
74995;SDS011;63545;51.690;5.202;2022-12-18T08:24:41;36.97;;;15.07;;
74995;SDS011;63545;51.690;5.202;2022-12-18T08:27:06;36.37;;;16.53;;
74995;SDS011;63545;51.690;5.202;2022-12-18T08:29:31;35.63;;;15.70;;
74995;SDS011;63545;51.690;5.202;2022-12-18T08:31:57;37.45;;;15.55;;
74995;SDS011;63545;51.690;5.202;2022-12-18T08:34:22;35.23;;;14.90;;
74995;SDS011;63545;51.690;5.202;2022-12-18T08:36:48;31.77;;;14.43;;
74995;SDS011;63545;51.690;5.202;2022-12-18T08:39:13;35.53;;;14.80;;
74995;SDS011;63545;51.690;5.202;2022-12-18T08:41:39;35.00;;;13.63;;
74995;SDS011;63545;51.690;5.202;2022-12-18T08:44:04;35.95;;;15.15;;
74995;SDS011;63545;51.690;5.202;2022-12-18T08:46:48;33.53;;;13.10;;
74995;SDS011;63545;51.690;5.202;2022-12-18T08:49:13;36.53;;;14.60;;
74995;SDS011;63545;51.690;5.202;2022-12-18T08:51:39;36.15;;;15.32;;
74995;SDS011;63545;51.690;5.202;2022-12-18T08:54:06;31.40;;;13.87;;
74995;SDS011;63545;51.690;5.202;2022-12-18T08:56:31;32.80;;;14.00;;
74995;SDS011;63545;51.690;5.202;2022-12-18T08:58:57;35.45;;;14.52;;
74995;SDS011;63545;51.690;5.202;2022-12-18T09:01:23;35.60;;;15.47;;
74995;SDS011;63545;51.690;5.202;2022-12-18T09:03:49;37.57;;;15.07;;
74995;SDS011;63545;51.690;5.202;2022-12-18T09:06:15;36.10;;;15.10;;
74995;SDS011;63545;51.690;5.202;2022-12-18T09:08:42;35.70;;;15.52;;
74995;SDS011;63545;51.690;5.202;2022-12-18T09:11:13;37.67;;;16.30;;
74995;SDS011;63545;51.690;5.202;2022-12-18T09:13:39;40.30;;;15.68;;
74995;SDS011;63545;51.690;5.202;2022-12-18T09:16:05;31.97;;;14.87;;
74995;SDS011;63545;51.690;5.202;2022-12-18T09:18:30;32.87;;;14.47;;
74995;SDS011;63545;51.690;5.202;2022-12-18T09:20:56;36.20;;;15.53;;
74995;SDS011;63545;51.690;5.202;2022-12-18T09:23:21;33.70;;;15.60;;
74995;SDS011;63545;51.690;5.202;2022-12-18T09:25:46;34.40;;;14.68;;
74995;SDS011;63545;51.690;5.202;2022-12-18T09:28:13;35.93;;;15.77;;
74995;SDS011;63545;51.690;5.202;2022-12-18T09:30:40;40.42;;;16.63;;
74995;SDS011;63545;51.690;5.202;2022-12-18T09:33:07;36.50;;;15.30;;
74995;SDS011;63545;51.690;5.202;2022-12-18T09:35:32;32.17;;;15.32;;
74995;SDS011;63545;51.690;5.202;2022-12-18T09:38:01;38.58;;;16.00;;
74995;SDS011;63545;51.690;5.202;2022-12-18T09:40:27;36.97;;;16.93;;
74995;SDS011;63545;51.690;5.202;2022-12-18T09:42:56;35.80;;;15.77;;
74995;SDS011;63545;51.690;5.202;2022-12-18T09:45:23;35.22;;;15.85;;
74995;SDS011;63545;51.690;5.202;2022-12-18T09:47:49;34.38;;;14.10;;
74995;SDS011;63545;51.690;5.202;2022-12-18T09:50:19;33.95;;;15.90;;
74995;SDS011;63545;51.690;5.202;2022-12-18T09:53:06;33.93;;;14.90;;
74995;SDS011;63545;51.690;5.202;2022-12-18T09:55:39;33.45;;;14.75;;
74995;SDS011;63545;51.690;5.202;2022-12-18T09:58:28;34.13;;;14.00;;
74995;SDS011;63545;51.690;5.202;2022-12-18T10:00:53;33.83;;;14.18;;
74995;SDS011;63545;51.690;5.202;2022-12-18T10:03:20;30.98;;;14.82;;
74995;SDS011;63545;51.690;5.202;2022-12-18T10:08:30;35.47;;;14.95;;
74995;SDS011;63545;51.690;5.202;2022-12-18T10:11:26;31.75;;;14.15;;
74995;SDS011;63545;51.690;5.202;2022-12-18T10:14:15;34.80;;;14.68;;
74995;SDS011;63545;51.690;5.202;2022-12-18T10:17:05;31.48;;;14.07;;
74995;SDS011;63545;51.690;5.202;2022-12-18T10:19:43;31.90;;;14.33;;
74995;SDS011;63545;51.690;5.202;2022-12-18T10:25:05;30.77;;;14.75;;
74995;SDS011;63545;51.690;5.202;2022-12-18T10:27:39;35.58;;;14.48;;
74995;SDS011;63545;51.690;5.202;2022-12-18T10:30:16;34.33;;;15.03;;
74995;SDS011;63545;51.690;5.202;2022-12-18T10:32:43;30.27;;;14.00;;
74995;SDS011;63545;51.690;5.202;2022-12-18T10:35:15;30.57;;;14.07;;
74995;SDS011;63545;51.690;5.202;2022-12-18T10:43:31;28.58;;;13.52;;
74995;SDS011;63545;51.690;5.202;2022-12-18T10:48:26;32.08;;;14.73;;
74995;SDS011;63545;51.690;5.202;2022-12-18T10:50:52;29.80;;;13.65;;
74995;SDS011;63545;51.690;5.202;2022-12-18T10:53:22;31.63;;;14.18;;
74995;SDS011;63545;51.690;5.202;2022-12-18T10:55:53;28.33;;;13.75;;
74995;SDS011;63545;51.690;5.202;2022-12-18T11:06:14;33.45;;;14.45;;
74995;SDS011;63545;51.690;5.202;2022-12-18T11:08:57;31.50;;;13.88;;
74995;SDS011;63545;51.690;5.202;2022-12-18T11:11:47;33.30;;;14.73;;
74995;SDS011;63545;51.690;5.202;2022-12-18T11:14:18;29.15;;;13.82;;
74995;SDS011;63545;51.690;5.202;2022-12-18T11:16:46;31.92;;;15.02;;
74995;SDS011;63545;51.690;5.202;2022-12-18T11:21:50;30.15;;;13.32;;
74995;SDS011;63545;51.690;5.202;2022-12-18T11:24:34;30.98;;;13.68;;
74995;SDS011;63545;51.690;5.202;2022-12-18T11:27:02;27.38;;;13.13;;
74995;SDS011;63545;51.690;5.202;2022-12-18T11:29:34;29.77;;;13.90;;
74995;SDS011;63545;51.690;5.202;2022-12-18T11:32:13;29.63;;;14.15;;
74995;SDS011;63545;51.690;5.202;2022-12-18T11:34:52;28.58;;;14.90;;
74995;SDS011;63545;51.690;5.202;2022-12-18T11:37:24;30.98;;;14.48;;
74995;SDS011;63545;51.690;5.202;2022-12-18T11:40:06;28.80;;;14.43;;
74995;SDS011;63545;51.690;5.202;2022-12-18T11:42:41;28.87;;;13.87;;
74995;SDS011;63545;51.690;5.202;2022-12-18T11:47:49;29.55;;;14.27;;
74995;SDS011;63545;51.690;5.202;2022-12-18T11:50:45;31.40;;;14.23;;
74995;SDS011;63545;51.690;5.202;2022-12-18T11:53:14;29.65;;;13.98;;
74995;SDS011;63545;51.690;5.202;2022-12-18T11:55:41;27.30;;;14.47;;
74995;SDS011;63545;51.690;5.202;2022-12-18T12:06:49;29.30;;;14.18;;
74995;SDS011;63545;51.690;5.202;2022-12-18T12:15:17;29.13;;;14.03;;
74995;SDS011;63545;51.690;5.202;2022-12-18T12:17:54;29.38;;;13.65;;
74995;SDS011;63545;51.690;5.202;2022-12-18T12:23:51;29.35;;;13.38;;
74995;SDS011;63545;51.690;5.202;2022-12-18T12:26:16;31.55;;;14.48;;
74995;SDS011;63545;51.690;5.202;2022-12-18T12:29:04;31.40;;;14.17;;
74995;SDS011;63545;51.690;5.202;2022-12-18T12:31:57;27.00;;;14.25;;
74995;SDS011;63545;51.690;5.202;2022-12-18T12:34:26;28.90;;;15.45;;
74995;SDS011;63545;51.690;5.202;2022-12-18T12:39:58;29.95;;;14.43;;
74995;SDS011;63545;51.690;5.202;2022-12-18T12:42:29;32.43;;;15.00;;
74995;SDS011;63545;51.690;5.202;2022-12-18T12:45:18;28.85;;;14.32;;
74995;SDS011;63545;51.690;5.202;2022-12-18T12:47:48;33.00;;;15.60;;
74995;SDS011;63545;51.690;5.202;2022-12-18T12:50:16;37.03;;;16.35;;
74995;SDS011;63545;51.690;5.202;2022-12-18T12:52:47;34.50;;;16.08;;
74995;SDS011;63545;51.690;5.202;2022-12-18T12:55:17;27.98;;;14.73;;
74995;SDS011;63545;51.690;5.202;2022-12-18T13:01:14;34.85;;;15.65;;
74995;SDS011;63545;51.690;5.202;2022-12-18T13:06:23;32.47;;;15.07;;
74995;SDS011;63545;51.690;5.202;2022-12-18T13:08:56;34.60;;;15.30;;
74995;SDS011;63545;51.690;5.202;2022-12-18T13:14:30;31.40;;;14.88;;
74995;SDS011;63545;51.690;5.202;2022-12-18T13:19:52;30.60;;;14.32;;
74995;SDS011;63545;51.690;5.202;2022-12-18T13:22:33;29.60;;;14.38;;
74995;SDS011;63545;51.690;5.202;2022-12-18T13:28:07;30.08;;;14.75;;
74995;SDS011;63545;51.690;5.202;2022-12-18T13:41:21;30.48;;;15.55;;
74995;SDS011;63545;51.690;5.202;2022-12-18T13:43:49;34.47;;;15.07;;
74995;SDS011;63545;51.690;5.202;2022-12-18T13:46:20;30.58;;;14.50;;
74995;SDS011;63545;51.690;5.202;2022-12-18T13:48:54;29.25;;;13.88;;
74995;SDS011;63545;51.690;5.202;2022-12-18T13:51:23;32.63;;;15.90;;
74995;SDS011;63545;51.690;5.202;2022-12-18T13:54:02;33.85;;;15.82;;
74995;SDS011;63545;51.690;5.202;2022-12-18T13:56:42;29.05;;;14.57;;
74995;SDS011;63545;51.690;5.202;2022-12-18T13:59:16;29.88;;;15.20;;
74995;SDS011;63545;51.690;5.202;2022-12-18T14:02:27;37.47;;;16.13;;
74995;SDS011;63545;51.690;5.202;2022-12-18T14:04:37;33.70;;;15.02;;
74995;SDS011;63545;51.690;5.202;2022-12-18T14:09:37;29.87;;;14.50;;
74995;SDS011;63545;51.690;5.202;2022-12-18T14:12:05;30.90;;;14.68;;
74995;SDS011;63545;51.690;5.202;2022-12-18T14:14:50;33.53;;;15.10;;
74995;SDS011;63545;51.690;5.202;2022-12-18T14:17:17;35.90;;;16.23;;
74995;SDS011;63545;51.690;5.202;2022-12-18T14:19:48;30.80;;;15.37;;
74995;SDS011;63545;51.690;5.202;2022-12-18T14:22:24;29.20;;;15.23;;
74995;SDS011;63545;51.690;5.202;2022-12-18T14:30:35;29.53;;;14.63;;
74995;SDS011;63545;51.690;5.202;2022-12-18T14:33:06;31.98;;;14.57;;
74995;SDS011;63545;51.690;5.202;2022-12-18T14:40:53;28.38;;;14.50;;
74995;SDS011;63545;51.690;5.202;2022-12-18T14:43:25;29.40;;;13.20;;
74995;SDS011;63545;51.690;5.202;2022-12-18T14:45:51;32.13;;;13.88;;
74995;SDS011;63545;51.690;5.202;2022-12-18T14:48:18;27.73;;;13.60;;
74995;SDS011;63545;51.690;5.202;2022-12-18T14:50:54;33.83;;;15.13;;
74995;SDS011;63545;51.690;5.202;2022-12-18T14:53:32;31.05;;;14.65;;
74995;SDS011;63545;51.690;5.202;2022-12-18T14:56:03;29.60;;;13.80;;
74995;SDS011;63545;51.690;5.202;2022-12-18T14:58:49;32.35;;;15.25;;
74995;SDS011;63545;51.690;5.202;2022-12-18T15:01:18;30.48;;;14.10;;
74995;SDS011;63545;51.690;5.202;2022-12-18T15:03:51;31.20;;;14.88;;
74995;SDS011;63545;51.690;5.202;2022-12-18T15:06:24;29.98;;;14.90;;
74995;SDS011;63545;51.690;5.202;2022-12-18T15:09:01;33.15;;;15.00;;
74995;SDS011;63545;51.690;5.202;2022-12-18T15:17:27;31.67;;;14.47;;
74995;SDS011;63545;51.690;5.202;2022-12-18T15:19:52;31.17;;;14.57;;
74995;SDS011;63545;51.690;5.202;2022-12-18T15:22:30;34.30;;;15.57;;
74995;SDS011;63545;51.690;5.202;2022-12-18T15:25:00;37.95;;;15.15;;
74995;SDS011;63545;51.690;5.202;2022-12-18T15:27:26;34.43;;;15.77;;
74995;SDS011;63545;51.690;5.202;2022-12-18T15:30:01;34.03;;;14.80;;
74995;SDS011;63545;51.690;5.202;2022-12-18T15:32:38;29.92;;;15.07;;
74995;SDS011;63545;51.690;5.202;2022-12-18T15:37:32;34.40;;;14.37;;
74995;SDS011;63545;51.690;5.202;2022-12-18T15:39:57;32.42;;;15.60;;
74995;SDS011;63545;51.690;5.202;2022-12-18T15:42:23;34.83;;;14.50;;
74995;SDS011;63545;51.690;5.202;2022-12-18T15:45:08;32.77;;;14.50;;
74995;SDS011;63545;51.690;5.202;2022-12-18T15:47:36;29.45;;;14.80;;
74995;SDS011;63545;51.690;5.202;2022-12-18T15:50:02;35.43;;;15.43;;
74995;SDS011;63545;51.690;5.202;2022-12-18T15:52:29;29.92;;;14.10;;
74995;SDS011;63545;51.690;5.202;2022-12-18T15:55:05;30.70;;;14.75;;
74995;SDS011;63545;51.690;5.202;2022-12-18T15:57:53;25.75;;;13.80;;
74995;SDS011;63545;51.690;5.202;2022-12-18T16:00:18;33.77;;;15.17;;
74995;SDS011;63545;51.690;5.202;2022-12-18T16:02:45;29.10;;;15.10;;
74995;SDS011;63545;51.690;5.202;2022-12-18T16:05:14;29.27;;;13.95;;
74995;SDS011;63545;51.690;5.202;2022-12-18T16:07:41;30.20;;;15.00;;
74995;SDS011;63545;51.690;5.202;2022-12-18T16:10:07;29.00;;;14.50;;
74995;SDS011;63545;51.690;5.202;2022-12-18T16:12:33;29.47;;;14.87;;
74995;SDS011;63545;51.690;5.202;2022-12-18T16:14:58;32.20;;;14.75;;
74995;SDS011;63545;51.690;5.202;2022-12-18T16:17:23;34.47;;;14.90;;
74995;SDS011;63545;51.690;5.202;2022-12-18T16:19:49;31.00;;;14.60;;
74995;SDS011;63545;51.690;5.202;2022-12-18T16:22:17;31.87;;;15.23;;
74995;SDS011;63545;51.690;5.202;2022-12-18T16:24:49;32.97;;;15.02;;
74995;SDS011;63545;51.690;5.202;2022-12-18T16:27:16;34.57;;;14.93;;
74995;SDS011;63545;51.690;5.202;2022-12-18T16:29:41;29.95;;;15.20;;
74995;SDS011;63545;51.690;5.202;2022-12-18T16:32:08;33.58;;;15.73;;
74995;SDS011;63545;51.690;5.202;2022-12-18T16:34:37;33.47;;;14.37;;